Αρχική σελίδα
METAR-TAF:

METAR-TAF

Αεροδρόμια :

Διεθνής Αερολιμένας Λάρνακας

Λάρνακα, Κύπρος

γεωγραφικό πλάτος: 34-53N, γεωγραφικό μήκος: 033-38E, υψόμετρο: 2 μ

Παρών καιρός

Η αναφορά έγινε 22 λεπτά πριν, στις 13:30 UTC
Άνεμος 9 kt από Α
Θερμοκρασία 23°C
Υγρασία 57%
Πίεση 1017 hPa
Ορατότητα 10 χλμ και άνω
Λίγα νέφη σε ύψος 3000 πόδια

METAR: LCLK 191330Z 10009KT 9999 FEW030 23/14 Q1017 NOSIG

Χρόνος: 15:52 (13:52 UTC)

Πρόγνωση Καιρού

Η αναφορά έγινε 2 ώρες και 22 λεπτά πριν, στις 11:30 UTC
Η πρόγνωση ισχύει από τις 19 στις 12 UTC έως τις 20 στις 12 UTC
Άνεμος 11 kt από Α/BA
Ορατότητα 10 χλμ και άνω
Λίγα νέφη σε ύψος 3500 πόδια
Καθιστάμενος
από 19 στις 17 UTC έως τις 19 στις 20 UTC
Άνεμος 7 kt από Β/BΔ
Καθιστάμενος
από 20 στις 09 UTC έως τις 20 στις 12 UTC
Άνεμος 10 kt από Α

TAF: LCLK 191130Z 1912/2012 07011KT 9999 FEW035 BECMG 1917/1920 33007KT BECMG 2009/2012 10010KT

Μετεωρολογικές αναφορές και προγνώσεις για περισσότερα από 4000 αεροδρόμια (δελτία METAR και TAF).

Οι διαθέσιμοι σταθμοί απεικονίζονται στο χάρτη με κίτρινες και κόκκινες κουκκίδες.

Μετακινήστε το ποντίκι πάνω από τις κουκκίδες για να δείτε το όνομα του σταθμού.

Στη συνέχεια, κάντε κλικ για να δείτε τις μετεωρολογικές αναφορές και τις προγνώσεις καιρού.

Για να αλλάξετε το χάρτη: κάντε κλικ στα πράσινα κουμπιά με τον μαύρο σταυρό για να ζουμάρετε, στο πράσινο κουμπί με την παύλα για να αφαιρέσετε το ζουμ ή στα πράσινα βέλη για να αντιπαραβάλλετε χάρτες.


METAR-TAF: